createdAt,value
2022-12-19T00:00:15.595Z,-0.43
2022-12-19T00:05:16.786Z,-0.40
2022-12-19T00:10:17.969Z,-0.36
2022-12-19T00:15:19.183Z,-0.31
2022-12-19T00:20:20.399Z,-0.25
2022-12-19T00:25:22.000Z,-0.22
2022-12-19T00:30:23.191Z,-0.17
2022-12-19T00:35:24.849Z,-0.15
2022-12-19T00:40:25.991Z,-0.13
2022-12-19T00:45:27.766Z,-0.10
2022-12-19T00:50:30.408Z,-0.07
2022-12-19T00:55:31.680Z,-0.02
2022-12-19T01:00:32.961Z,-0.02
2022-12-19T01:05:34.123Z,0.02
2022-12-19T01:10:36.512Z,0.09
2022-12-19T01:15:37.702Z,0.13
2022-12-19T01:20:38.888Z,0.17
2022-12-19T01:25:40.194Z,0.19
2022-12-19T01:30:44.347Z,0.23
2022-12-19T01:35:45.754Z,0.25
2022-12-19T01:40:46.986Z,0.27
2022-12-19T01:45:48.165Z,0.30
2022-12-19T01:51:00.735Z,0.33
2022-12-19T01:56:09.220Z,0.36
2022-12-19T02:01:10.496Z,0.40
2022-12-19T02:06:11.952Z,0.43
2022-12-19T02:11:13.129Z,0.47
2022-12-19T02:16:14.301Z,0.50
2022-12-19T02:21:15.517Z,0.53
2022-12-19T02:26:16.771Z,0.57
2022-12-19T02:31:18.044Z,0.62
2022-12-19T02:36:19.308Z,0.67
2022-12-19T02:41:20.524Z,0.73
2022-12-19T02:46:21.787Z,0.75
2022-12-19T02:51:22.991Z,0.77
2022-12-19T02:56:24.213Z,0.81
2022-12-19T03:01:25.688Z,0.84
2022-12-19T03:06:28.284Z,0.87
2022-12-19T03:11:29.499Z,0.89
2022-12-19T03:16:30.718Z,0.94
2022-12-19T03:21:31.997Z,0.98
2022-12-19T03:26:33.209Z,1.01
2022-12-19T03:31:34.389Z,1.07
2022-12-19T03:36:35.593Z,1.10
2022-12-19T03:42:03.069Z,1.11
2022-12-19T03:47:04.556Z,1.11
2022-12-19T03:52:05.698Z,1.11
2022-12-19T03:57:06.888Z,1.13
2022-12-19T04:02:08.421Z,1.15
2022-12-19T04:07:09.683Z,1.21
2022-12-19T04:12:10.818Z,1.26
2022-12-19T04:17:11.996Z,1.29
2022-12-19T04:22:13.184Z,1.34
2022-12-19T04:27:14.729Z,1.36
2022-12-19T04:32:16.008Z,1.38
2022-12-19T04:37:17.193Z,1.43
2022-12-19T04:42:18.359Z,1.44
2022-12-19T04:47:19.551Z,1.48
2022-12-19T04:52:20.735Z,1.50
2022-12-19T04:57:21.971Z,1.54
2022-12-19T05:02:24.070Z,1.56
2022-12-19T05:07:25.427Z,1.57
2022-12-19T05:12:26.552Z,1.59
2022-12-19T05:17:27.747Z,1.63
2022-12-19T05:22:28.941Z,1.73
2022-12-19T05:27:30.150Z,1.80
2022-12-19T05:32:32.044Z,1.86
2022-12-19T05:37:33.309Z,1.99
2022-12-19T05:42:34.456Z,2.11
2022-12-19T05:47:37.910Z,2.16
2022-12-19T05:52:39.274Z,2.34
2022-12-19T05:57:40.484Z,2.42
2022-12-19T06:02:41.794Z,2.49
2022-12-19T06:07:43.056Z,2.53
2022-12-19T06:12:44.229Z,2.58
2022-12-19T06:17:45.381Z,2.64
2022-12-19T06:22:46.563Z,2.72
2022-12-19T06:27:47.812Z,2.80
2022-12-19T06:32:49.018Z,2.82
2022-12-19T06:37:50.180Z,2.88
2022-12-19T06:42:51.322Z,2.92
2022-12-19T06:47:52.466Z,2.91
2022-12-19T06:52:53.637Z,2.91
2022-12-19T06:57:55.281Z,2.91
2022-12-19T07:02:56.512Z,2.91
2022-12-19T07:07:57.788Z,2.93
2022-12-19T07:12:58.984Z,2.97
2022-12-19T07:18:00.160Z,3.03
2022-12-19T07:23:01.368Z,3.05
2022-12-19T07:28:02.629Z,3.10
2022-12-19T07:33:03.786Z,3.18
2022-12-19T07:38:04.925Z,3.28
2022-12-19T07:43:06.129Z,3.32
2022-12-19T07:48:07.319Z,3.40
2022-12-19T07:53:08.576Z,3.45
2022-12-19T07:58:12.890Z,3.53
2022-12-19T08:03:14.232Z,3.62
2022-12-19T08:08:15.548Z,3.68
2022-12-19T08:13:16.701Z,3.70
2022-12-19T08:18:18.122Z,3.74
2022-12-19T08:23:19.284Z,3.80
2022-12-19T08:28:20.666Z,3.83
2022-12-19T08:33:21.897Z,3.83
2022-12-19T08:38:23.072Z,3.83
2022-12-19T08:43:24.391Z,3.85
2022-12-19T08:48:25.607Z,3.87
2022-12-19T08:53:26.956Z,3.92
2022-12-19T08:58:28.181Z,3.67
2022-12-19T09:03:54.976Z,4.01
2022-12-19T09:08:50.625Z,4.12
2022-12-19T09:13:52.665Z,4.22
2022-12-19T09:18:53.883Z,4.32
2022-12-19T09:23:55.069Z,4.35
2022-12-19T09:28:56.245Z,4.40
2022-12-19T09:33:57.463Z,4.47
2022-12-19T09:38:58.687Z,4.52
2022-12-19T09:44:01.309Z,4.60
2022-12-19T09:49:03.395Z,4.68
2022-12-19T09:54:05.181Z,4.71
2022-12-19T09:59:06.343Z,4.68
2022-12-19T10:04:07.619Z,4.55
2022-12-19T10:10:12.892Z,4.47
2022-12-19T10:14:30.062Z,4.47
2022-12-19T10:19:33.292Z,4.46
2022-12-19T10:24:35.431Z,4.46
2022-12-19T10:29:36.742Z,4.46
2022-12-19T10:34:40.724Z,4.43
2022-12-19T10:39:42.527Z,4.37
2022-12-19T10:44:43.700Z,4.38
2022-12-19T10:49:45.173Z,4.44
2022-12-19T10:54:47.497Z,4.51
2022-12-19T10:59:48.719Z,4.63
2022-12-19T11:04:50.006Z,4.68
2022-12-19T11:10:29.789Z,4.77
2022-12-19T11:20:00.642Z,4.85
2022-12-19T11:29:17.291Z,4.89
2022-12-19T11:30:35.539Z,4.96
2022-12-19T11:36:40.157Z,5.04
2022-12-19T11:41:41.357Z,5.06
2022-12-19T11:46:42.567Z,5.04
2022-12-19T11:51:43.831Z,5.07
2022-12-19T11:56:45.133Z,5.14
2022-12-19T12:01:46.451Z,5.15
2022-12-19T12:06:47.792Z,5.20
2022-12-19T12:18:28.157Z,5.24
2022-12-19T12:30:59.652Z,5.26
2022-12-19T12:31:22.093Z,5.23
2022-12-19T12:32:04.210Z,5.23
2022-12-19T12:35:51.820Z,5.26
2022-12-19T12:38:35.666Z,5.30
2022-12-19T12:43:37.667Z,5.37
2022-12-19T12:48:38.874Z,5.44
2022-12-19T12:53:40.696Z,5.46
2022-12-19T12:58:41.885Z,5.40
2022-12-19T13:03:43.146Z,5.30
2022-12-19T13:08:44.350Z,5.24
2022-12-19T13:13:45.575Z,5.24
2022-12-19T13:18:46.775Z,5.28
2022-12-19T13:23:47.980Z,5.31
2022-12-19T13:28:49.199Z,5.34
2022-12-19T13:33:50.374Z,5.32
2022-12-19T13:39:56.519Z,5.30
2022-12-19T13:44:12.807Z,5.22
2022-12-19T13:49:13.986Z,5.18
2022-12-19T13:54:15.451Z,5.15
2022-12-19T13:59:16.656Z,5.14
2022-12-19T14:04:17.942Z,5.13
2022-12-19T14:09:41.548Z,5.14
2022-12-19T14:15:12.375Z,5.15
2022-12-19T14:21:36.379Z,5.18
2022-12-19T14:28:21.751Z,5.22
2022-12-19T14:30:56.999Z,5.27
2022-12-19T14:36:06.824Z,5.27
2022-12-19T14:41:34.101Z,5.30
2022-12-19T14:54:03.493Z,5.31
2022-12-19T14:54:34.889Z,5.44
2022-12-19T14:57:25.443Z,5.53
2022-12-19T15:02:41.092Z,5.57
2022-12-19T15:07:42.377Z,5.62
2022-12-19T15:14:48.758Z,5.63
2022-12-19T15:18:23.525Z,5.78
2022-12-19T15:23:25.067Z,5.83
2022-12-19T15:28:26.231Z,5.83
2022-12-19T15:33:27.463Z,5.87
2022-12-19T15:38:28.609Z,5.95
2022-12-19T15:44:02.488Z,6.13
2022-12-19T15:48:51.103Z,6.24
2022-12-19T15:53:52.254Z,6.29
2022-12-19T15:58:53.445Z,6.30
2022-12-19T16:03:55.877Z,6.38
2022-12-19T16:08:57.535Z,6.50
2022-12-19T16:13:58.732Z,6.62
2022-12-19T16:18:59.884Z,6.63
2022-12-19T16:24:01.095Z,6.53
2022-12-19T16:29:02.331Z,6.44
2022-12-19T16:34:04.028Z,6.39
2022-12-19T16:39:05.276Z,6.34
2022-12-19T16:44:06.677Z,6.35
2022-12-19T16:49:07.874Z,6.39
2022-12-19T16:54:09.089Z,6.42
2022-12-19T16:59:10.265Z,6.46
2022-12-19T17:04:11.444Z,6.56
2022-12-19T17:09:12.696Z,6.66
2022-12-19T17:14:14.420Z,6.71
2022-12-19T17:19:15.569Z,6.83
2022-12-19T17:24:16.793Z,6.85
2022-12-19T17:29:23.684Z,6.89
2022-12-19T17:34:24.913Z,6.92
2022-12-19T17:39:26.098Z,6.97
2022-12-19T17:44:27.292Z,7.01
2022-12-19T17:49:28.494Z,7.07
2022-12-19T17:54:30.534Z,7.07
2022-12-19T17:59:31.799Z,7.02
2022-12-19T18:04:32.992Z,7.02
2022-12-19T18:09:34.188Z,7.00
2022-12-19T18:14:35.420Z,7.02
2022-12-19T18:19:36.564Z,7.05
2022-12-19T18:24:37.795Z,7.07
2022-12-19T18:29:39.033Z,7.06
2022-12-19T18:34:40.628Z,7.06
2022-12-19T18:39:41.847Z,7.13
2022-12-19T18:44:43.052Z,7.15
2022-12-19T18:49:44.531Z,7.21
2022-12-19T18:54:45.686Z,7.23
2022-12-19T18:59:48.515Z,7.28
2022-12-19T19:04:49.769Z,7.29
2022-12-19T19:09:50.984Z,7.35
2022-12-19T19:14:52.661Z,7.41
2022-12-19T19:19:54.064Z,7.44
2022-12-19T19:24:55.246Z,7.47
2022-12-19T19:29:56.514Z,7.53
2022-12-19T19:34:57.713Z,7.61
2022-12-19T19:39:58.906Z,7.58
2022-12-19T19:45:00.060Z,7.63
2022-12-19T19:50:01.272Z,7.67
2022-12-19T19:55:02.424Z,7.69
2022-12-19T20:00:03.588Z,7.71
2022-12-19T20:05:04.830Z,7.79
2022-12-19T20:10:06.077Z,7.90
2022-12-19T20:15:07.222Z,7.92
2022-12-19T20:20:08.394Z,7.95
2022-12-19T20:25:09.568Z,7.95
2022-12-19T20:30:10.722Z,7.93
2022-12-19T20:35:14.831Z,7.98
2022-12-19T20:40:16.440Z,8.03
2022-12-19T20:45:17.581Z,7.88
2022-12-19T20:50:18.785Z,8.10
2022-12-19T20:55:19.980Z,8.13
2022-12-19T21:00:21.125Z,8.18
2022-12-19T21:05:22.462Z,8.26
2022-12-19T21:10:23.829Z,8.34
2022-12-19T21:15:25.242Z,8.35
2022-12-19T21:20:33.883Z,8.38
2022-12-19T21:25:35.427Z,8.40
2022-12-19T21:30:36.637Z,8.41
2022-12-19T21:35:40.777Z,8.41
2022-12-19T21:40:41.990Z,8.39
2022-12-19T21:45:43.190Z,8.39
2022-12-19T21:50:44.436Z,8.39
2022-12-19T21:55:45.644Z,8.47
2022-12-19T22:00:46.939Z,8.49
2022-12-19T22:05:48.152Z,8.57
2022-12-19T22:10:49.310Z,8.59
2022-12-19T22:15:50.633Z,8.55
2022-12-19T22:20:51.868Z,8.57
2022-12-19T22:25:53.075Z,8.53
2022-12-19T22:30:54.234Z,8.52
2022-12-19T22:35:55.444Z,8.56
2022-12-19T22:40:56.671Z,8.62
2022-12-19T22:45:58.545Z,8.64
2022-12-19T22:50:59.838Z,8.70
2022-12-19T22:56:06.108Z,8.70
2022-12-19T23:01:07.308Z,8.68
2022-12-19T23:06:08.529Z,8.66
2022-12-19T23:11:09.777Z,8.67
2022-12-19T23:16:11.023Z,8.74
2022-12-19T23:21:12.337Z,8.80
2022-12-19T23:26:15.763Z,8.77
2022-12-19T23:31:17.549Z,8.76
2022-12-19T23:36:38.085Z,8.73
2022-12-19T23:41:40.005Z,8.76
2022-12-19T23:46:41.358Z,8.80
2022-12-19T23:51:42.599Z,8.86
2022-12-19T23:56:43.871Z,8.91
